createdAt,value
2018-08-23T00:00:21.437Z,7.80
2018-08-23T00:02:48.193Z,7.60
2018-08-23T00:05:14.962Z,7.60
2018-08-23T00:07:41.707Z,8.10
2018-08-23T00:10:08.397Z,7.30
2018-08-23T00:12:42.774Z,8.00
2018-08-23T00:15:11.967Z,8.63
2018-08-23T00:17:44.370Z,8.13
2018-08-23T00:20:11.971Z,8.87
2018-08-23T00:22:38.698Z,8.00
2018-08-23T00:25:05.444Z,7.43
2018-08-23T00:27:32.414Z,7.33
2018-08-23T00:29:59.090Z,7.73
2018-08-23T00:32:25.798Z,8.80
2018-08-23T00:34:52.548Z,7.90
2018-08-23T00:37:19.291Z,8.23
2018-08-23T00:39:45.940Z,7.87
2018-08-23T00:42:12.628Z,8.70
2018-08-23T00:44:50.860Z,7.37
2018-08-23T00:47:17.578Z,7.90
2018-08-23T00:49:44.293Z,10.03
2018-08-23T00:52:10.971Z,9.67
2018-08-23T00:54:37.624Z,8.83
2018-08-23T00:57:04.505Z,8.10
2018-08-23T00:59:31.161Z,8.70
2018-08-23T01:02:05.660Z,8.30
2018-08-23T01:04:36.936Z,8.40
2018-08-23T01:07:03.690Z,7.93
2018-08-23T01:09:30.342Z,8.13
2018-08-23T01:11:57.075Z,8.27
2018-08-23T01:14:23.781Z,7.87
2018-08-23T01:16:56.360Z,8.90
2018-08-23T01:19:28.846Z,7.97
2018-08-23T01:21:55.504Z,7.23
2018-08-23T01:24:22.865Z,7.43
2018-08-23T01:26:49.687Z,8.53
2018-08-23T01:29:24.990Z,7.60
2018-08-23T01:31:51.753Z,8.80
2018-08-23T01:34:18.457Z,7.53
2018-08-23T01:36:45.195Z,7.57
2018-08-23T01:39:11.905Z,7.23
2018-08-23T01:41:38.696Z,7.80
2018-08-23T01:44:05.455Z,8.33
2018-08-23T01:46:37.835Z,8.17
2018-08-23T01:49:04.698Z,7.70
2018-08-23T01:51:31.429Z,8.63
2018-08-23T01:53:58.187Z,8.77
2018-08-23T01:56:24.909Z,7.50
2018-08-23T01:58:51.631Z,9.13
2018-08-23T02:01:19.851Z,7.00
2018-08-23T02:03:46.530Z,8.90
2018-08-23T02:06:13.478Z,7.83
2018-08-23T02:08:41.718Z,7.70
2018-08-23T02:11:18.361Z,7.83
2018-08-23T02:13:47.049Z,8.30
2018-08-23T02:16:13.772Z,7.33
2018-08-23T02:18:40.523Z,8.70
2018-08-23T02:21:09.297Z,8.00
2018-08-23T02:23:41.755Z,8.10
2018-08-23T02:26:08.446Z,7.80
2018-08-23T02:28:35.105Z,8.13
2018-08-23T02:31:01.857Z,8.10
2018-08-23T02:33:28.550Z,9.90
2018-08-23T02:36:05.505Z,8.83
2018-08-23T02:38:32.492Z,7.37
2018-08-23T02:40:59.180Z,8.60
2018-08-23T02:43:25.991Z,9.37
2018-08-23T02:45:53.509Z,8.50
2018-08-23T02:48:20.713Z,8.07
2018-08-23T02:50:47.579Z,8.67
2018-08-23T02:53:26.013Z,9.23
2018-08-23T02:55:53.001Z,9.60
2018-08-23T02:58:19.797Z,8.40
2018-08-23T03:00:46.471Z,8.87
2018-08-23T03:03:14.015Z,8.93
2018-08-23T03:05:40.678Z,8.60
2018-08-23T03:08:07.420Z,8.90
2018-08-23T03:10:34.569Z,8.97
2018-08-23T03:13:01.305Z,8.50
2018-08-23T03:15:28.024Z,9.47
2018-08-23T03:17:54.726Z,8.03
2018-08-23T03:20:21.465Z,8.60
2018-08-23T03:22:50.410Z,8.20
2018-08-23T03:25:19.311Z,7.80
2018-08-23T03:27:46.012Z,9.07
2018-08-23T03:30:16.907Z,7.50
2018-08-23T03:32:43.671Z,8.20
2018-08-23T03:35:10.424Z,8.57
2018-08-23T03:37:37.154Z,8.80
2018-08-23T03:40:04.270Z,8.90
2018-08-23T03:42:31.066Z,9.40
2018-08-23T03:44:58.496Z,7.17
2018-08-23T03:47:26.022Z,8.30
2018-08-23T03:49:52.745Z,8.10
2018-08-23T03:52:21.647Z,9.03
2018-08-23T03:54:53.603Z,8.60
2018-08-23T03:57:20.324Z,9.47
2018-08-23T03:59:48.232Z,9.20
2018-08-23T04:02:16.123Z,8.57
2018-08-23T04:04:43.418Z,8.23
2018-08-23T04:07:10.205Z,9.13
2018-08-23T04:09:36.860Z,8.27
2018-08-23T04:12:05.868Z,8.67
2018-08-23T04:14:32.616Z,8.77
2018-08-23T04:16:59.356Z,8.77
2018-08-23T04:19:26.884Z,8.67
2018-08-23T04:21:53.589Z,9.10
2018-08-23T04:24:20.288Z,9.40
2018-08-23T04:29:38.757Z,8.27
2018-08-23T04:32:05.502Z,9.70
2018-08-23T04:34:35.285Z,8.77
2018-08-23T04:37:01.962Z,8.20
2018-08-23T04:39:28.640Z,9.43
2018-08-23T04:42:01.428Z,9.07
2018-08-23T04:44:28.958Z,8.03
2018-08-23T04:46:56.581Z,9.77
2018-08-23T04:49:23.259Z,9.70
2018-08-23T04:51:50.055Z,9.13
2018-08-23T04:54:16.708Z,8.83
2018-08-23T04:56:43.501Z,9.50
2018-08-23T04:59:10.288Z,9.50
2018-08-23T05:01:37.039Z,9.90
2018-08-23T05:04:03.835Z,9.60
2018-08-23T05:06:30.527Z,9.07
2018-08-23T05:08:57.248Z,9.60
2018-08-23T05:11:23.952Z,9.60
2018-08-23T05:13:50.667Z,8.53
2018-08-23T05:16:17.760Z,9.57
2018-08-23T05:18:44.654Z,8.83
2018-08-23T05:21:11.372Z,9.30
2018-08-23T05:23:38.062Z,9.67
2018-08-23T05:26:18.193Z,8.73
2018-08-23T05:28:50.646Z,9.50
2018-08-23T05:31:17.366Z,10.20
2018-08-23T05:33:44.031Z,9.40
2018-08-23T05:36:15.284Z,9.43
2018-08-23T05:38:41.979Z,9.20
2018-08-23T05:41:11.970Z,9.87
2018-08-23T05:43:38.783Z,9.40
2018-08-23T05:46:05.508Z,8.60
2018-08-23T05:48:32.358Z,10.00
2018-08-23T05:51:00.575Z,9.40
2018-08-23T05:53:27.265Z,8.80
2018-08-23T05:55:55.246Z,8.70
2018-08-23T05:58:24.414Z,10.80
2018-08-23T06:00:51.133Z,9.60
2018-08-23T06:03:17.817Z,9.97
2018-08-23T06:05:45.859Z,9.57
2018-08-23T06:08:12.799Z,11.27
2018-08-23T06:10:39.478Z,11.27
2018-08-23T06:13:06.145Z,11.30
2018-08-23T06:15:37.390Z,11.53
2018-08-23T06:18:04.449Z,11.47
2018-08-23T06:20:31.151Z,11.50
2018-08-23T06:22:57.968Z,10.27
2018-08-23T06:25:24.697Z,12.87
2018-08-23T06:27:52.545Z,12.80
2018-08-23T06:30:19.263Z,9.93
2018-08-23T06:32:47.212Z,11.50
2018-08-23T06:35:13.849Z,9.23
2018-08-23T06:37:45.108Z,9.87
2018-08-23T06:40:11.786Z,9.50
2018-08-23T06:42:44.166Z,9.50
2018-08-23T06:45:10.924Z,9.90
2018-08-23T06:47:39.683Z,9.20
2018-08-23T06:50:06.386Z,9.93
2018-08-23T06:52:38.614Z,9.27
2018-08-23T06:55:05.491Z,9.17
2018-08-23T06:57:38.043Z,9.70
2018-08-23T07:00:04.973Z,9.63
2018-08-23T07:02:31.659Z,9.73
2018-08-23T07:04:58.398Z,9.30
2018-08-23T07:07:25.174Z,11.00
2018-08-23T07:09:51.882Z,9.73
2018-08-23T07:12:19.672Z,9.47
2018-08-23T07:14:47.293Z,8.90
2018-08-23T07:17:19.911Z,9.40
2018-08-23T07:19:47.322Z,10.47
2018-08-23T07:22:20.984Z,10.50
2018-08-23T07:24:48.507Z,10.03
2018-08-23T07:27:16.220Z,10.67
2018-08-23T07:29:44.540Z,11.00
2018-08-23T07:32:17.061Z,10.50
2018-08-23T07:34:49.364Z,9.40
2018-08-23T07:37:17.475Z,10.47
2018-08-23T07:39:50.083Z,9.70
2018-08-23T07:42:16.865Z,10.73
2018-08-23T07:44:43.655Z,9.90
2018-08-23T07:47:10.500Z,10.37
2018-08-23T07:49:37.244Z,9.90
2018-08-23T07:52:04.026Z,9.40
2018-08-23T07:54:30.819Z,10.10
2018-08-23T07:56:57.497Z,9.10
2018-08-23T07:59:24.202Z,8.60
2018-08-23T08:01:50.911Z,8.90
2018-08-23T08:04:17.719Z,9.63
2018-08-23T08:06:44.465Z,10.17
2018-08-23T08:09:11.255Z,9.90
2018-08-23T08:11:49.785Z,8.87
2018-08-23T08:14:22.267Z,9.10
2018-08-23T08:16:48.938Z,8.50
2018-08-23T08:19:15.678Z,8.53
2018-08-23T08:21:42.436Z,7.80
2018-08-23T08:24:09.140Z,7.83
2018-08-23T08:26:35.847Z,10.23
2018-08-23T08:29:02.625Z,8.07
2018-08-23T08:31:29.357Z,8.93
2018-08-23T08:33:57.363Z,8.40
2018-08-23T08:36:24.874Z,8.50
2018-08-23T08:38:51.664Z,8.70
2018-08-23T08:41:18.427Z,8.33
2018-08-23T08:43:45.133Z,7.67
2018-08-23T08:46:11.838Z,8.17
2018-08-23T08:48:38.590Z,7.70
2018-08-23T08:51:24.441Z,7.80
2018-08-23T08:53:51.743Z,7.63
2018-08-23T08:56:22.829Z,7.20
2018-08-23T08:58:49.940Z,5.80
2018-08-23T09:01:16.618Z,7.97
2018-08-23T09:03:43.456Z,6.37
2018-08-23T09:06:12.791Z,7.27
2018-08-23T09:08:39.500Z,6.20
2018-08-23T09:13:47.614Z,4.73
2018-08-23T09:16:14.965Z,3.63
2018-08-23T09:18:44.806Z,4.90
2018-08-23T09:21:12.163Z,27.13
2018-08-23T09:23:39.559Z,4.00
2018-08-23T09:26:06.900Z,4.67
2018-08-23T09:28:34.793Z,3.47
2018-08-23T09:31:02.082Z,3.80
2018-08-23T09:33:29.324Z,3.40
2018-08-23T09:35:56.611Z,4.10
2018-08-23T09:38:23.967Z,3.90
2018-08-23T09:40:51.279Z,3.83
2018-08-23T09:43:18.552Z,4.20
2018-08-23T09:45:46.030Z,4.07
2018-08-23T09:48:13.393Z,4.00
2018-08-23T09:50:40.724Z,3.20
2018-08-23T09:53:25.287Z,3.87
2018-08-23T09:55:53.886Z,3.13
2018-08-23T09:58:26.971Z,3.60
2018-08-23T10:01:00.221Z,3.90
2018-08-23T10:03:33.915Z,3.63
2018-08-23T10:06:06.472Z,3.40
2018-08-23T10:08:39.626Z,4.03
2018-08-23T10:11:17.643Z,3.47
2018-08-23T10:13:51.229Z,3.67
2018-08-23T10:16:24.438Z,4.23
2018-08-23T10:18:54.363Z,4.03
2018-08-23T10:21:27.487Z,3.23
2018-08-23T10:24:04.868Z,3.97
2018-08-23T10:26:32.822Z,4.30
2018-08-23T10:29:00.141Z,4.30
2018-08-23T10:31:27.479Z,4.00
2018-08-23T10:33:54.862Z,4.17
2018-08-23T10:36:22.108Z,4.23
2018-08-23T10:38:49.459Z,4.30
2018-08-23T10:41:16.789Z,4.20
2018-08-23T10:43:47.239Z,3.43
2018-08-23T10:46:14.683Z,4.27
2018-08-23T10:48:41.971Z,3.97
2018-08-23T10:51:09.413Z,5.10
2018-08-23T10:53:36.652Z,3.93
2018-08-23T10:56:03.880Z,4.07
2018-08-23T10:58:31.212Z,4.30
2018-08-23T11:00:58.843Z,4.67
2018-08-23T11:03:26.143Z,3.80
2018-08-23T11:05:53.568Z,3.70
2018-08-23T11:08:26.060Z,4.07
2018-08-23T11:10:59.141Z,23.13
2018-08-23T11:13:32.208Z,22.53
2018-08-23T11:16:05.360Z,4.50
2018-08-23T11:18:38.261Z,3.90
2018-08-23T11:21:05.504Z,4.53
2018-08-23T11:23:32.875Z,4.17
2018-08-23T11:26:00.273Z,4.83
2018-08-23T11:28:28.309Z,3.83
2018-08-23T11:30:59.902Z,4.70
2018-08-23T11:33:27.218Z,4.67
2018-08-23T11:35:54.498Z,3.53
2018-08-23T11:38:21.889Z,4.33
2018-08-23T11:40:49.187Z,6.67
2018-08-23T11:43:16.583Z,7.70
2018-08-23T11:45:43.884Z,9.50
2018-08-23T11:48:11.166Z,10.20
2018-08-23T11:50:39.093Z,14.73
2018-08-23T11:53:06.586Z,11.90
2018-08-23T11:55:33.958Z,9.60
2018-08-23T11:58:01.325Z,8.73
2018-08-23T12:00:28.556Z,7.30
2018-08-23T12:02:55.833Z,7.07
2018-08-23T12:05:23.161Z,6.50
2018-08-23T12:07:51.812Z,6.17
2018-08-23T12:10:20.571Z,6.57
2018-08-23T12:12:49.025Z,6.93
2018-08-23T12:15:22.647Z,5.70
2018-08-23T12:17:50.829Z,5.83
2018-08-23T12:20:18.090Z,5.80
2018-08-23T12:22:45.452Z,5.10
2018-08-23T12:25:13.281Z,4.20
2018-08-23T12:27:41.404Z,4.50
2018-08-23T12:30:08.838Z,4.20
2018-08-23T12:32:36.274Z,4.30
2018-08-23T12:35:03.854Z,3.57
2018-08-23T12:37:37.023Z,3.03
2018-08-23T12:40:10.193Z,2.77
2018-08-23T12:42:45.180Z,3.20
2018-08-23T12:45:13.119Z,3.00
2018-08-23T12:47:40.552Z,2.80
2018-08-23T12:50:07.853Z,3.80
2018-08-23T12:52:35.189Z,2.97
2018-08-23T12:55:02.646Z,3.10
2018-08-23T12:57:29.964Z,3.00
2018-08-23T12:59:57.130Z,2.90
2018-08-23T13:02:24.645Z,4.03
2018-08-23T13:04:51.881Z,3.40
2018-08-23T13:07:19.568Z,3.60
2018-08-23T13:09:46.836Z,3.30
2018-08-23T13:12:14.594Z,3.30
2018-08-23T13:14:42.044Z,2.93
2018-08-23T13:17:09.377Z,2.77
2018-08-23T13:19:36.612Z,3.80
2018-08-23T13:22:03.910Z,3.50
2018-08-23T13:24:32.063Z,3.40
2018-08-23T13:26:59.385Z,4.10
2018-08-23T13:29:27.477Z,2.87
2018-08-23T13:31:55.143Z,2.97
2018-08-23T13:34:22.437Z,3.20
2018-08-23T13:36:49.808Z,4.10
2018-08-23T13:39:17.068Z,3.50
2018-08-23T13:41:44.326Z,3.40
2018-08-23T13:44:11.605Z,3.00
2018-08-23T13:46:38.966Z,2.87
2018-08-23T13:49:06.312Z,3.20
2018-08-23T13:51:33.651Z,3.20
2018-08-23T13:54:00.984Z,2.67
2018-08-23T13:56:28.176Z,2.70
2018-08-23T13:58:56.228Z,3.90
2018-08-23T14:01:24.953Z,3.33
2018-08-23T14:03:52.862Z,3.50
2018-08-23T14:06:20.150Z,3.73
2018-08-23T14:08:47.533Z,3.90
2018-08-23T14:11:14.867Z,4.00
2018-08-23T14:13:42.124Z,4.00
2018-08-23T14:16:09.437Z,4.47
2018-08-23T14:18:36.690Z,3.40
2018-08-23T14:21:04.227Z,4.40
2018-08-23T14:23:31.543Z,3.47
2018-08-23T14:25:58.799Z,3.80
2018-08-23T14:28:26.355Z,4.20
2018-08-23T14:30:53.660Z,4.07
2018-08-23T14:33:20.927Z,4.43
2018-08-23T14:35:48.130Z,3.97
2018-08-23T14:38:15.449Z,4.00
2018-08-23T14:40:42.807Z,4.80
2018-08-23T14:43:10.195Z,4.33
2018-08-23T14:45:37.586Z,3.77
2018-08-23T14:48:10.681Z,4.30
2018-08-23T14:50:38.065Z,5.43
2018-08-23T14:53:06.018Z,4.50
2018-08-23T14:55:38.999Z,4.80
2018-08-23T14:58:06.769Z,4.43
2018-08-23T15:00:34.135Z,4.43
2018-08-23T15:03:01.547Z,4.30
2018-08-23T15:05:28.824Z,4.63
2018-08-23T15:07:56.198Z,3.63
2018-08-23T15:10:23.543Z,4.53
2018-08-23T15:12:50.882Z,4.83
2018-08-23T15:15:22.800Z,4.67
2018-08-23T15:17:50.087Z,4.93
2018-08-23T15:20:17.326Z,4.30
2018-08-23T15:25:37.279Z,4.17
2018-08-23T15:28:04.685Z,3.83
2018-08-23T15:30:31.961Z,4.00
2018-08-23T15:32:59.243Z,4.30
2018-08-23T15:35:26.603Z,4.20
2018-08-23T15:37:53.887Z,4.00
2018-08-23T15:40:21.163Z,4.40
2018-08-23T15:42:48.538Z,4.80
2018-08-23T15:45:16.295Z,3.60
2018-08-23T15:47:43.592Z,3.83
2018-08-23T15:50:10.969Z,4.17
2018-08-23T15:52:38.262Z,4.10
2018-08-23T15:55:05.709Z,3.57
2018-08-23T15:57:32.857Z,3.67
2018-08-23T16:00:00.197Z,3.20
2018-08-23T16:02:27.473Z,3.47
2018-08-23T16:04:54.723Z,3.40
2018-08-23T16:07:22.043Z,4.53
2018-08-23T16:09:49.257Z,3.60
2018-08-23T16:12:16.671Z,3.73
2018-08-23T16:14:43.962Z,4.47
2018-08-23T16:17:16.905Z,3.90
2018-08-23T16:19:49.840Z,4.30
2018-08-23T16:22:17.103Z,3.50
2018-08-23T16:24:44.417Z,4.20
2018-08-23T16:27:11.642Z,3.90
2018-08-23T16:29:39.060Z,4.47
2018-08-23T16:32:06.569Z,4.43
2018-08-23T16:34:33.773Z,4.87
2018-08-23T16:37:01.036Z,4.07
2018-08-23T16:39:28.368Z,4.50
2018-08-23T16:41:55.675Z,3.37
2018-08-23T16:44:22.892Z,5.23
2018-08-23T16:46:50.209Z,4.27
2018-08-23T16:49:17.525Z,4.50
2018-08-23T16:51:44.841Z,4.17
2018-08-23T16:54:12.107Z,3.80
2018-08-23T16:56:39.374Z,4.27
2018-08-23T16:59:06.707Z,4.80
2018-08-23T17:01:33.947Z,4.60
2018-08-23T17:04:01.369Z,4.90
2018-08-23T17:06:28.879Z,5.63
2018-08-23T17:08:56.369Z,5.57
2018-08-23T17:11:23.676Z,5.00
2018-08-23T17:13:50.979Z,5.17
2018-08-23T17:16:23.802Z,5.00
2018-08-23T17:18:51.665Z,5.63
2018-08-23T17:21:18.980Z,5.43
2018-08-23T17:23:46.297Z,5.03
2018-08-23T17:26:13.613Z,5.40
2018-08-23T17:28:41.149Z,5.07
2018-08-23T17:31:08.494Z,5.53
2018-08-23T17:33:35.848Z,5.10
2018-08-23T17:36:03.190Z,5.27
2018-08-23T17:38:31.094Z,5.70
2018-08-23T17:40:58.384Z,6.17
2018-08-23T17:43:26.232Z,5.53
2018-08-23T17:45:53.530Z,5.50
2018-08-23T17:48:21.098Z,5.30
2018-08-23T17:50:48.540Z,5.60
2018-08-23T17:53:15.808Z,5.37
2018-08-23T17:55:43.239Z,5.93
2018-08-23T17:58:10.924Z,6.03
2018-08-23T18:00:38.746Z,6.27
2018-08-23T18:03:06.153Z,5.70
2018-08-23T18:05:33.512Z,5.63
2018-08-23T18:08:00.800Z,6.20
2018-08-23T18:10:28.238Z,5.70
2018-08-23T18:12:55.498Z,5.60
2018-08-23T18:15:27.431Z,6.20
2018-08-23T18:17:55.047Z,5.40
2018-08-23T18:20:22.358Z,5.67
2018-08-23T18:22:49.592Z,5.50
2018-08-23T18:25:16.917Z,5.67
2018-08-23T18:27:44.141Z,5.70
2018-08-23T18:30:11.481Z,6.33
2018-08-23T18:32:38.828Z,6.50
2018-08-23T18:35:06.176Z,6.40
2018-08-23T18:37:33.472Z,6.23
2018-08-23T18:40:00.855Z,6.30
2018-08-23T18:42:28.103Z,5.23
2018-08-23T18:44:55.511Z,6.07
2018-08-23T18:47:22.917Z,6.73
2018-08-23T18:49:50.164Z,7.27
2018-08-23T18:52:17.569Z,5.53
2018-08-23T18:54:45.007Z,6.00
2018-08-23T18:57:12.383Z,7.20
2018-08-23T18:59:39.753Z,5.37
2018-08-23T19:02:07.048Z,6.13
2018-08-23T19:04:34.353Z,6.50
2018-08-23T19:07:01.586Z,6.33
2018-08-23T19:09:28.875Z,5.93
2018-08-23T19:11:56.186Z,6.77
2018-08-23T19:14:23.516Z,5.87
2018-08-23T19:17:56.701Z,5.80
2018-08-23T19:20:24.045Z,12.03
2018-08-23T19:22:51.281Z,9.23
2018-08-23T19:25:18.640Z,7.93
2018-08-23T19:27:46.034Z,8.00
2018-08-23T19:30:13.309Z,7.40
2018-08-23T19:32:40.621Z,6.97
2018-08-23T19:35:07.920Z,6.27
2018-08-23T19:37:35.189Z,7.70
2018-08-23T19:40:02.446Z,7.10
2018-08-23T19:43:54.362Z,6.70
2018-08-23T19:46:27.404Z,7.23
2018-08-23T19:49:00.412Z,6.17
2018-08-23T19:51:27.826Z,7.20
2018-08-23T19:53:55.131Z,7.83
2018-08-23T19:56:22.395Z,7.10
2018-08-23T19:58:49.693Z,7.10
2018-08-23T20:01:17.026Z,6.87
2018-08-23T20:03:44.334Z,6.57
2018-08-23T20:06:11.656Z,6.00
2018-08-23T20:08:38.947Z,25.37
2018-08-23T20:11:06.203Z,11.63
2018-08-23T20:13:33.499Z,7.80
2018-08-23T20:16:00.866Z,5.90
2018-08-23T20:18:28.161Z,7.70
2018-08-23T20:20:55.616Z,6.83
2018-08-23T20:23:22.927Z,7.50
2018-08-23T20:25:50.358Z,7.43
2018-08-23T20:28:17.817Z,6.70
2018-08-23T20:30:45.181Z,7.13
2018-08-23T20:36:05.365Z,7.67
2018-08-23T20:38:32.812Z,6.90
2018-08-23T20:41:00.120Z,6.97
2018-08-23T20:43:27.506Z,7.10
2018-08-23T20:45:54.855Z,7.67
2018-08-23T20:48:22.185Z,7.17
2018-08-23T20:50:49.451Z,7.57
2018-08-23T20:53:16.809Z,10.17
2018-08-23T20:55:44.081Z,10.60
2018-08-23T20:58:11.443Z,6.60
2018-08-23T21:00:38.761Z,7.10
2018-08-23T21:03:06.037Z,5.70
2018-08-23T21:05:33.355Z,7.50
2018-08-23T21:08:00.639Z,6.47
2018-08-23T21:10:27.871Z,6.93
2018-08-23T21:12:55.149Z,6.63
2018-08-23T21:15:22.511Z,6.20
2018-08-23T21:17:49.896Z,5.83
2018-08-23T21:20:17.161Z,5.97
2018-08-23T21:22:44.438Z,4.93
2018-08-23T21:25:11.795Z,4.50
2018-08-23T21:27:39.075Z,4.07
2018-08-23T21:30:06.718Z,4.23
2018-08-23T21:32:34.006Z,4.37
2018-08-23T21:35:01.296Z,3.57
2018-08-23T21:37:28.568Z,3.30
2018-08-23T21:39:55.897Z,3.53
2018-08-23T21:42:23.154Z,4.23
2018-08-23T21:44:50.399Z,4.70
2018-08-23T21:47:17.653Z,3.77
2018-08-23T21:49:44.904Z,3.93
2018-08-23T21:52:12.294Z,3.90
2018-08-23T21:54:39.684Z,4.20
2018-08-23T21:57:06.970Z,4.17
2018-08-23T21:59:34.326Z,3.77
2018-08-23T22:02:07.343Z,5.50
2018-08-23T22:04:39.154Z,4.17
2018-08-23T22:07:06.536Z,4.90
2018-08-23T22:09:33.864Z,5.00
2018-08-23T22:12:01.106Z,4.70
2018-08-23T22:14:28.347Z,4.37
2018-08-23T22:16:55.620Z,4.20
2018-08-23T22:19:22.943Z,4.70
2018-08-23T22:21:50.302Z,4.13
2018-08-23T22:24:17.632Z,4.90
2018-08-23T22:26:45.017Z,4.80
2018-08-23T22:29:12.278Z,4.60
2018-08-23T22:31:39.561Z,5.33
2018-08-23T22:34:06.876Z,4.10
2018-08-23T22:36:34.240Z,4.50
2018-08-23T22:39:01.614Z,4.93
2018-08-23T22:41:28.964Z,4.30
2018-08-23T22:43:56.242Z,4.40
2018-08-23T22:46:23.552Z,4.27
2018-08-23T22:48:50.879Z,5.43
2018-08-23T22:51:18.233Z,5.07
2018-08-23T22:53:45.517Z,5.50
2018-08-23T22:56:12.769Z,4.50
2018-08-23T22:58:40.165Z,4.30
2018-08-23T23:01:07.549Z,5.10
2018-08-23T23:03:40.204Z,4.80
2018-08-23T23:06:08.078Z,4.67
2018-08-23T23:08:35.396Z,4.20
2018-08-23T23:11:02.683Z,5.27
2018-08-23T23:13:29.990Z,5.17
2018-08-23T23:15:57.230Z,4.27
2018-08-23T23:18:24.520Z,3.87
2018-08-23T23:20:51.875Z,4.00
2018-08-23T23:23:19.145Z,4.00
2018-08-23T23:25:46.440Z,4.37
2018-08-23T23:28:13.826Z,4.07
2018-08-23T23:30:41.134Z,4.13
2018-08-23T23:33:08.464Z,4.30
2018-08-23T23:35:35.767Z,4.23
2018-08-23T23:38:03.054Z,4.07
2018-08-23T23:40:30.333Z,4.37
2018-08-23T23:42:57.679Z,4.20
2018-08-23T23:45:24.947Z,4.40
2018-08-23T23:47:52.194Z,4.83
2018-08-23T23:50:19.577Z,4.23
2018-08-23T23:52:46.962Z,3.67
2018-08-23T23:55:14.296Z,4.37
2018-08-23T23:57:41.688Z,4.10
